Troutdale, Virginia
Current Conditions -  °F | °C
As of 4:35 AM on Friday 24 Oct 2014 (Local Time) from KMKJ Reporting Station
Haze Haze  
Wind Chill: 31°   Ceiling: Unl
Heat Index: 37°   Visibility: 4mi
Dew Point: 36°   Wind: 7mph
Humidity: 95%   Direction: 270°W
Pressure: 30.13"   Gusts: NA
Location:  36.6915°N, 81.4378°W
Report Text: KMKJ 240835Z AUTO 27006KT 4SM BR CLR 03/02 A3013 RMK AO2 T00270020
Loading
Personal Weather Stations






























Interactive Weather Map
Tropical Storm Tracking
New forecast layout! Learn more

10-Day Weather Forecast

Advertisements
Track Severe Weather on mobile